Time;durP1;ratioP1;P1;durP2;ratioP2;P2;SDS_P1;SDS_P2;PMS_P1;PMS_P2;Temp;Humidity;BMP_temperature;BMP_pressure;BME280_temperature;BME280_humidity;BME280_pressure;Samples;Min_cycle;Max_cycle;Signal;HPM_P1;HPM_P2
2023/03/19 00:02:05;;;;;;;13.70;4.88;;;;;;;8.73;100.00;100912.59;5073147;28;20035;-68
2023/03/19 00:04:30;;;;;;;14.25;5.00;;;;;;;8.74;100.00;100918.78;5072471;28;20380;-67
2023/03/19 00:06:55;;;;;;;13.70;4.70;;;;;;;8.76;100.00;100910.91;5073012;28;20040;-67
2023/03/19 00:09:21;;;;;;;14.63;4.68;;;;;;;8.74;100.00;100916.16;5073266;28;20036;-67
2023/03/19 00:11:47;;;;;;;13.88;4.45;;;;;;;8.73;100.00;100914.38;5072686;28;20049;-68
2023/03/19 00:14:13;;;;;;;12.77;4.38;;;;;;;8.74;100.00;100908.25;5073308;28;20029;-67
2023/03/19 00:16:39;;;;;;;13.13;4.60;;;;;;;8.74;100.00;100913.50;5072925;28;20402;-67
2023/03/19 00:19:05;;;;;;;13.18;4.70;;;;;;;8.70;100.00;100909.94;5073047;28;20127;-66
2023/03/19 00:21:31;;;;;;;15.90;4.65;;;;;;;8.71;100.00;100914.34;5072613;28;20029;-67
2023/03/19 00:23:59;;;;;;;14.82;4.60;;;;;;;8.71;100.00;100924.88;5072873;28;20095;-67
2023/03/19 00:26:27;;;;;;;13.85;4.60;;;;;;;8.73;100.00;100923.16;5072923;28;20059;-68
2023/03/19 00:28:53;;;;;;;14.77;4.75;;;;;;;8.77;100.00;100924.09;5072571;28;20239;-68
2023/03/19 00:31:18;;;;;;;16.02;4.80;;;;;;;8.80;100.00;100931.16;5072616;28;20442;-67
2023/03/19 00:33:44;;;;;;;14.20;4.80;;;;;;;8.82;100.00;100926.78;5072935;28;20185;-66
2023/03/19 00:36:10;;;;;;;16.80;5.10;;;;;;;8.81;100.00;100925.00;5072747;28;20107;-67
2023/03/19 00:38:36;;;;;;;14.10;4.80;;;;;;;8.82;100.00;100925.00;5073387;28;20044;-67
2023/03/19 00:41:04;;;;;;;15.80;5.38;;;;;;;8.81;100.00;100927.63;5073051;28;20025;-66
2023/03/19 00:43:29;;;;;;;15.63;5.35;;;;;;;8.81;100.00;100930.28;5072444;28;20169;-68
2023/03/19 00:45:54;;;;;;;15.48;5.53;;;;;;;8.79;100.00;100922.34;5072691;28;20032;-72
2023/03/19 00:48:20;;;;;;;15.30;5.43;;;;;;;8.76;100.00;100918.81;5068237;28;20116;-71
2023/03/19 00:50:47;;;;;;;14.13;5.18;;;;;;;8.77;100.00;100932.00;5072357;28;20021;-72
2023/03/19 00:53:12;;;;;;;15.00;5.47;;;;;;;8.77;100.00;100932.00;5072536;28;20028;-72
2023/03/19 00:55:38;;;;;;;14.45;4.95;;;;;;;8.77;100.00;100934.63;5072438;28;20029;-72
2023/03/19 00:58:05;;;;;;;16.50;5.38;;;;;;;8.77;100.00;100932.00;5070973;28;20082;-71
2023/03/19 01:00:31;;;;;;;18.17;5.72;;;;;;;8.80;100.00;100923.25;5072618;28;20502;-71
2023/03/19 01:02:57;;;;;;;17.50;5.70;;;;;;;8.77;100.00;100925.84;5072270;28;20457;-72
2023/03/19 01:05:22;;;;;;;16.77;5.70;;;;;;;8.75;100.00;100923.16;5072236;28;20036;-71
2023/03/19 01:07:48;;;;;;;18.88;6.20;;;;;;;8.70;100.00;100933.66;5072420;28;20379;-71
2023/03/19 01:10:13;;;;;;;18.38;6.32;;;;;;;8.68;100.00;100935.41;5072118;28;20513;-72
2023/03/19 01:12:38;;;;;;;18.20;6.25;;;;;;;8.68;100.00;100927.50;5072187;28;20029;-71
2023/03/19 01:15:05;;;;;;;18.33;6.20;;;;;;;8.71;100.00;100930.16;5072303;28;20471;-70
2023/03/19 01:17:31;;;;;;;18.20;6.15;;;;;;;8.72;100.00;100934.56;5075658;28;20033;-71
2023/03/19 01:19:56;;;;;;;17.00;6.40;;;;;;;8.75;100.00;100925.81;5076219;28;20082;-71
2023/03/19 01:22:22;;;;;;;17.23;6.25;;;;;;;8.75;100.00;100932.84;5076194;28;20531;-71
2023/03/19 01:24:47;;;;;;;18.20;6.38;;;;;;;8.74;100.00;100934.59;5075805;28;20028;-72
2023/03/19 01:27:12;;;;;;;16.10;5.85;;;;;;;8.76;100.00;100930.22;5075794;28;20029;-71
2023/03/19 01:29:38;;;;;;;17.45;6.28;;;;;;;8.76;100.00;100926.72;5076077;28;20025;-72
2023/03/19 01:32:03;;;;;;;17.20;5.95;;;;;;;8.79;100.00;100924.97;5075659;28;20445;-72
2023/03/19 01:34:29;;;;;;;17.30;6.18;;;;;;;8.79;100.00;100929.38;5075930;28;20070;-71
2023/03/19 01:36:54;;;;;;;17.75;6.20;;;;;;;8.79;100.00;100932.88;5075654;28;20368;-71
2023/03/19 01:39:20;;;;;;;17.70;6.20;;;;;;;8.77;100.00;100929.38;5075465;28;20028;-71
2023/03/19 01:41:45;;;;;;;17.50;6.20;;;;;;;8.79;100.00;100924.09;5076109;28;20117;-65
2023/03/19 01:44:37;;;;;;;17.60;6.32;;;;;;;8.79;100.00;100924.97;5076068;28;20078;-69
2023/03/19 01:47:09;;;;;;;17.38;6.38;;;;;;;8.75;100.00;100927.56;5073289;28;20066;-66
2023/03/19 01:49:35;;;;;;;16.67;6.28;;;;;;;8.76;100.00;100924.94;5075430;28;20036;-70
2023/03/19 01:52:03;;;;;;;18.98;6.43;;;;;;;8.75;100.00;100927.56;5075667;28;20472;-77
2023/03/19 01:54:31;;;;;;;17.98;6.80;;;;;;;8.76;100.00;100930.22;5075686;28;20429;-68
2023/03/19 01:57:04;;;;;;;19.67;6.70;;;;;;;8.80;100.00;100931.16;5075183;28;20475;-66
2023/03/19 01:59:36;;;;;;;17.25;6.50;;;;;;;8.79;100.00;100929.38;5075898;28;20048;-66
2023/03/19 02:02:14;;;;;;;17.80;6.63;;;;;;;8.81;100.00;100927.63;5075838;28;20025;-71
2023/03/19 02:04:41;;;;;;;18.58;6.70;;;;;;;8.80;100.00;100924.13;5075851;28;20086;-68
2023/03/19 02:07:08;;;;;;;18.33;6.80;;;;;;;8.76;100.00;100931.97;5075520;28;20039;-66
2023/03/19 02:09:33;;;;;;;17.77;6.65;;;;;;;8.70;100.00;100925.75;5074843;28;20029;-71
2023/03/19 02:12:00;;;;;;;19.70;7.20;;;;;;;8.69;100.00;100928.38;5077349;28;20033;-66
2023/03/19 02:14:26;;;;;;;19.13;7.15;;;;;;;8.69;100.00;100924.00;5080492;28;20055;-68
2023/03/19 02:16:53;;;;;;;18.70;7.20;;;;;;;8.67;100.00;100930.09;5080430;28;20032;-68
2023/03/19 02:19:39;;;;;;;19.80;8.00;;;;;;;8.67;100.00;100933.63;5078539;28;20025;-67
2023/03/19 02:22:05;;;;;;;20.10;8.10;;;;;;;8.64;100.00;100922.16;5073314;28;20497;-69
2023/03/19 02:24:40;;;;;;;19.63;8.27;;;;;;;8.63;100.00;100925.66;5074894;28;20028;-75
2023/03/19 02:27:08;;;;;;;19.92;8.23;;;;;;;8.63;100.00;100925.66;5074384;28;20017;-79
2023/03/19 02:29:34;;;;;;;19.45;8.02;;;;;;;8.64;100.00;100938.84;5074369;28;20037;-70
2023/03/19 02:31:59;;;;;;;20.33;8.63;;;;;;;8.67;100.00;100935.38;5075449;28;20031;-70
2023/03/19 02:34:24;;;;;;;19.92;8.75;;;;;;;8.67;100.00;100936.25;5075198;28;20399;-70
2023/03/19 02:36:56;;;;;;;20.08;8.52;;;;;;;8.69;100.00;100934.53;5075307;28;20082;-66
2023/03/19 02:39:28;;;;;;;21.13;8.97;;;;;;;8.68;100.00;100934.53;5071254;28;20036;-78
2023/03/19 02:41:57;;;;;;;19.80;8.52;;;;;;;8.66;100.00;100931.84;5071399;28;20267;-80
2023/03/19 02:44:23;;;;;;;20.58;8.98;;;;;;;8.66;100.00;100934.47;5070459;28;20420;-66
2023/03/19 02:46:48;;;;;;;21.42;9.23;;;;;;;8.62;100.00;100944.94;5075527;28;20048;-67
2023/03/19 02:49:14;;;;;;;20.20;9.18;;;;;;;8.59;100.00;100943.19;5074928;28;20475;-66
2023/03/19 02:51:40;;;;;;;21.10;9.43;;;;;;;8.60;100.00;100942.31;5074891;28;20115;-66
2023/03/19 02:54:06;;;;;;;20.67;9.55;;;;;;;8.62;100.00;100945.84;5074951;28;20042;-66
2023/03/19 02:56:31;;;;;;;21.38;9.38;;;;;;;8.63;100.00;100939.69;5074111;28;20124;-67
2023/03/19 02:58:57;;;;;;;20.58;9.55;;;;;;;8.66;100.00;100942.38;5074630;28;20032;-68
2023/03/19 03:01:23;;;;;;;20.67;9.73;;;;;;;8.65;100.00;100945.91;5075270;28;20537;-66
2023/03/19 03:03:49;;;;;;;20.70;9.80;;;;;;;8.65;100.00;100943.25;5074869;28;20044;-67
2023/03/19 03:06:14;;;;;;;22.33;9.77;;;;;;;8.68;100.00;100950.34;5074756;28;20118;-66
2023/03/19 03:08:40;;;;;;;20.77;9.70;;;;;;;8.69;100.00;100954.72;5074793;28;20479;-66
2023/03/19 03:11:06;;;;;;;20.48;9.63;;;;;;;8.69;100.00;100950.34;5073515;28;20071;-70
2023/03/19 03:13:32;;;;;;;21.20;9.77;;;;;;;8.71;100.00;100950.38;5074945;28;20123;-68
2023/03/19 03:15:57;;;;;;;21.00;9.68;;;;;;;8.73;100.00;100949.50;5073320;28;20104;-68
2023/03/19 03:18:23;;;;;;;20.73;9.05;;;;;;;8.73;100.00;100952.13;5074282;28;20039;-67
2023/03/19 03:20:48;;;;;;;21.50;10.27;;;;;;;8.71;100.00;100947.75;5074711;28;20111;-67
2023/03/19 03:23:14;;;;;;;21.88;9.93;;;;;;;8.70;100.00;100940.69;5074045;28;20032;-66
2023/03/19 03:25:40;;;;;;;22.15;9.90;;;;;;;8.69;100.00;100945.09;5073777;28;20158;-67
2023/03/19 03:28:05;;;;;;;21.65;10.25;;;;;;;8.70;100.00;100945.97;5074248;28;20052;-68
2023/03/19 03:30:31;;;;;;;21.73;10.57;;;;;;;8.66;100.00;100947.66;5074203;28;20032;-69
2023/03/19 03:32:57;;;;;;;20.63;9.90;;;;;;;8.67;100.00;100945.91;5074352;28;20025;-67
2023/03/19 03:35:22;;;;;;;21.70;10.30;;;;;;;8.62;100.00;100950.22;5070230;28;20029;-66
2023/03/19 03:37:49;;;;;;;21.92;10.27;;;;;;;8.54;100.00;100948.38;5073168;28;20060;-67
2023/03/19 03:40:15;;;;;;;21.90;10.27;;;;;;;8.50;100.00;100943.03;5073935;28;20499;-67
2023/03/19 03:42:41;;;;;;;22.83;10.95;;;;;;;8.45;100.00;100939.47;5073890;28;20033;-67
2023/03/19 03:45:08;;;;;;;22.65;10.48;;;;;;;8.42;100.00;100949.91;5073889;28;20142;-67
2023/03/19 03:47:34;;;;;;;21.55;10.80;;;;;;;8.34;100.00;100942.78;5072402;28;20040;-66
2023/03/19 03:50:00;;;;;;;21.88;10.73;;;;;;;8.27;100.00;100948.81;5073863;28;20040;-66
2023/03/19 03:52:30;;;;;;;22.17;11.27;;;;;;;8.25;100.00;100953.16;5073252;28;20398;-67
2023/03/19 03:54:56;;;;;;;22.98;11.38;;;;;;;8.23;100.00;100959.25;5069944;28;20067;-67
2023/03/19 03:57:22;;;;;;;22.50;11.07;;;;;;;8.24;100.00;100967.19;5074584;28;20395;-67
2023/03/19 03:59:47;;;;;;;23.05;11.38;;;;;;;8.21;100.00;100967.16;5073131;28;20044;-66
2023/03/19 04:02:12;;;;;;;23.00;11.80;;;;;;;8.16;100.00;100961.81;5073727;28;20025;-66
2023/03/19 04:04:38;;;;;;;22.55;11.70;;;;;;;8.15;100.00;100967.06;5073191;28;20468;-67
2023/03/19 04:07:03;;;;;;;23.35;11.65;;;;;;;8.13;100.00;100974.06;5073687;28;20471;-71
2023/03/19 04:09:28;;;;;;;22.80;11.65;;;;;;;8.12;100.00;100967.00;5073424;28;20543;-71
2023/03/19 04:11:54;;;;;;;23.65;12.45;;;;;;;8.10;100.00;100968.75;5073517;28;20052;-71
2023/03/19 04:14:19;;;;;;;22.65;12.13;;;;;;;8.00;100.00;100963.31;5073600;28;20071;-71
2023/03/19 04:16:44;;;;;;;23.88;12.82;;;;;;;7.96;100.00;100961.47;5073481;28;20066;-72
2023/03/19 04:19:10;;;;;;;24.30;13.02;;;;;;;7.90;100.00;100963.13;5072690;28;20028;-71
2023/03/19 04:21:35;;;;;;;23.35;12.95;;;;;;;7.87;100.00;100961.31;5073366;28;20026;-71
2023/03/19 04:24:01;;;;;;;23.70;13.07;;;;;;;7.85;100.00;100968.31;5073416;28;20031;-71
2023/03/19 04:26:26;;;;;;;23.77;12.65;;;;;;;7.83;100.00;100967.41;5073345;28;20031;-71
2023/03/19 04:28:51;;;;;;;25.25;12.88;;;;;;;7.73;100.00;100968.09;5073443;28;20036;-72
2023/03/19 04:31:17;;;;;;;23.30;12.75;;;;;;;7.71;100.00;100969.81;5071818;28;20032;-71
2023/03/19 04:33:43;;;;;;;23.70;12.90;;;;;;;7.63;100.00;100967.03;5072842;28;20044;-71
2023/03/19 04:36:09;;;;;;;23.92;12.77;;;;;;;7.60;100.00;100973.16;5073055;28;20475;-71
2023/03/19 04:38:34;;;;;;;26.23;13.82;;;;;;;7.63;100.00;100964.41;5073085;28;20043;-71
2023/03/19 04:41:00;;;;;;;24.70;13.77;;;;;;;7.59;100.00;100955.56;5073247;28;20174;-71
2023/03/19 04:43:26;;;;;;;26.13;14.32;;;;;;;7.53;100.00;100968.63;5073307;28;20029;-72
2023/03/19 04:45:51;;;;;;;24.58;13.88;;;;;;;7.48;100.00;100967.63;5072592;28;20337;-71
2023/03/19 04:48:17;;;;;;;25.33;14.18;;;;;;;7.46;100.00;100972.00;5072964;28;20121;-71
2023/03/19 04:50:44;;;;;;;25.88;14.43;;;;;;;7.42;100.00;100968.41;5073793;28;20032;-68
2023/03/19 04:53:10;;;;;;;27.10;14.65;;;;;;;7.46;100.00;100977.25;5077381;28;20086;-66
2023/03/19 04:55:35;;;;;;;26.50;15.52;;;;;;;7.46;100.00;100975.50;5077119;28;20487;-65
2023/03/19 04:58:01;;;;;;;25.92;14.55;;;;;;;7.43;100.00;100972.81;5077114;28;20033;-79
2023/03/19 05:00:27;;;;;;;26.08;14.60;;;;;;;7.42;100.00;100983.31;5076343;28;20056;-66
2023/03/19 05:02:52;;;;;;;25.65;14.63;;;;;;;7.38;100.00;100984.97;5076984;28;20129;-66
2023/03/19 05:05:18;;;;;;;27.02;15.07;;;;;;;7.45;100.00;100989.50;5077137;28;20078;-69
2023/03/19 05:07:43;;;;;;;26.13;15.05;;;;;;;7.45;100.00;100993.88;5076879;28;20024;-67
2023/03/19 05:10:10;;;;;;;25.85;14.93;;;;;;;7.41;100.00;100994.69;5076844;28;20075;-79
2023/03/19 05:12:36;;;;;;;26.67;15.30;;;;;;;7.36;100.00;100993.72;5076087;28;20053;-66
2023/03/19 05:15:04;;;;;;;27.75;16.10;;;;;;;7.28;100.00;100994.44;5076736;28;20031;-67
2023/03/19 05:17:30;;;;;;;27.98;16.52;;;;;;;7.23;100.00;101006.59;5076587;28;20078;-69
2023/03/19 05:19:55;;;;;;;28.02;15.88;;;;;;;7.22;100.00;100996.94;5076796;28;20033;-67
2023/03/19 05:22:21;;;;;;;27.17;15.85;;;;;;;7.25;100.00;101006.63;5076765;28;20123;-66
2023/03/19 05:24:46;;;;;;;27.55;16.30;;;;;;;7.20;100.00;101000.41;5076576;28;20055;-79
2023/03/19 05:27:12;;;;;;;27.95;15.80;;;;;;;7.22;100.00;101006.56;5076175;28;20075;-68
2023/03/19 05:29:37;;;;;;;28.02;16.45;;;;;;;7.24;100.00;101003.13;5076634;28;20514;-66
2023/03/19 05:32:04;;;;;;;28.30;16.45;;;;;;;7.27;100.00;101011.06;5076292;28;20060;-66
2023/03/19 05:34:30;;;;;;;28.38;16.65;;;;;;;7.29;100.00;101014.59;5076642;28;20031;-68
2023/03/19 05:36:56;;;;;;;29.65;17.02;;;;;;;7.25;100.00;101010.16;5076230;28;20055;-68
2023/03/19 05:39:22;;;;;;;27.05;16.27;;;;;;;7.24;100.00;101011.00;5076295;28;20029;-70
2023/03/19 05:41:47;;;;;;;27.23;15.88;;;;;;;7.19;100.00;101012.66;5075641;28;20020;-66
2023/03/19 05:44:12;;;;;;;27.25;15.93;;;;;;;7.21;100.00;101016.22;5076448;28;20028;-67
2023/03/19 05:46:38;;;;;;;28.33;16.75;;;;;;;7.16;100.00;101015.22;5076146;28;20463;-67
2023/03/19 05:49:04;;;;;;;28.95;16.75;;;;;;;7.11;100.00;101015.13;5076288;28;20593;-66
2023/03/19 05:51:30;;;;;;;29.45;17.48;;;;;;;7.11;100.00;101019.50;5076132;28;20024;-76
2023/03/19 05:53:55;;;;;;;28.85;16.85;;;;;;;7.06;100.00;101026.38;5075455;28;20068;-68
2023/03/19 05:56:20;;;;;;;29.95;17.13;;;;;;;7.08;100.00;101030.84;5075901;28;20032;-67
2023/03/19 05:58:46;;;;;;;29.58;17.50;;;;;;;7.06;100.00;101027.31;5076043;28;20039;-67
2023/03/19 06:01:11;;;;;;;30.02;18.27;;;;;;;7.03;100.00;101027.19;5075935;28;20491;-66
2023/03/19 06:03:37;;;;;;;31.10;18.55;;;;;;;6.99;100.00;101030.66;5074653;28;20031;-67
2023/03/19 06:06:02;;;;;;;29.98;18.10;;;;;;;6.98;100.00;101037.63;5076139;28;20063;-66
2023/03/19 06:08:28;;;;;;;31.15;18.27;;;;;;;6.93;100.00;101033.13;5075593;28;20036;-67
2023/03/19 06:10:53;;;;;;;30.42;18.33;;;;;;;6.94;100.00;101038.41;5075561;28;20048;-67
2023/03/19 06:13:19;;;;;;;30.65;17.63;;;;;;;6.89;100.00;101041.81;5075720;28;20086;-67
2023/03/19 06:15:47;;;;;;;31.90;19.17;;;;;;;6.89;100.00;101047.94;5075984;28;20036;-67
2023/03/19 06:18:12;;;;;;;32.03;18.73;;;;;;;6.93;100.00;101047.16;5075360;28;20033;-66
2023/03/19 06:20:38;;;;;;;31.02;19.58;;;;;;;6.96;100.00;101049.84;5074905;28;20580;-68
2023/03/19 06:23:03;;;;;;;33.75;20.30;;;;;;;7.04;100.00;101050.03;5075699;28;20051;-68
2023/03/19 06:25:28;;;;;;;35.08;21.58;;;;;;;7.07;100.00;101057.09;5075484;28;20032;-66
2023/03/19 06:27:54;;;;;;;35.45;21.98;;;;;;;7.10;100.00;101065.03;5070087;28;20116;-67
2023/03/19 06:30:20;;;;;;;34.80;22.05;;;;;;;7.11;100.00;101061.56;5076090;28;20047;-67
2023/03/19 06:32:46;;;;;;;34.13;22.20;;;;;;;7.16;100.00;101057.28;5075494;28;20041;-66
2023/03/19 06:35:11;;;;;;;34.95;22.15;;;;;;;7.20;100.00;101067.03;5074756;28;20029;-67
2023/03/19 06:37:37;;;;;;;36.33;22.92;;;;;;;7.27;100.00;101066.28;5075082;28;20100;-66
2023/03/19 06:40:03;;;;;;;36.15;23.23;;;;;;;7.30;100.00;101070.75;5075024;28;20086;-67
2023/03/19 06:42:29;;;;;;;37.65;23.25;;;;;;;7.33;100.00;101074.31;5074109;28;20032;-68
2023/03/19 06:44:54;;;;;;;36.30;23.17;;;;;;;7.36;100.00;101075.25;5074837;28;20438;-66
2023/03/19 06:47:20;;;;;;;35.55;22.35;;;;;;;7.45;100.00;101080.69;5074441;28;20108;-66
2023/03/19 06:49:45;;;;;;;35.42;22.58;;;;;;;7.49;100.00;101080.78;5074912;28;20040;-67
2023/03/19 06:52:11;;;;;;;35.35;22.60;;;;;;;7.53;100.00;101075.56;5075226;28;20024;-67
2023/03/19 06:54:36;;;;;;;35.95;22.85;;;;;;;7.55;100.00;101081.78;5074844;28;20033;-67
2023/03/19 06:57:01;;;;;;;37.97;22.92;;;;;;;7.57;100.00;101080.97;5075012;28;20056;-67
2023/03/19 06:59:27;;;;;;;34.70;22.10;;;;;;;7.57;100.00;101088.84;5074671;28;20033;-66
2023/03/19 07:01:52;;;;;;;35.58;21.52;;;;;;;7.63;100.00;101083.72;5074030;28;20029;-67
2023/03/19 07:04:18;;;;;;;36.00;22.23;;;;;;;7.71;100.00;101093.50;5074844;28;20038;-67
2023/03/19 07:06:43;;;;;;;35.95;21.27;;;;;;;7.77;100.00;101088.34;5074646;28;20127;-67
2023/03/19 07:09:09;;;;;;;35.80;21.48;;;;;;;7.83;100.00;101091.09;5074555;28;20024;-67
2023/03/19 07:11:34;;;;;;;35.28;21.55;;;;;;;7.90;100.00;101100.00;5074670;28;20135;-67
2023/03/19 07:14:00;;;;;;;33.95;20.77;;;;;;;7.96;100.00;101103.63;5074026;28;20048;-68
2023/03/19 07:16:25;;;;;;;33.38;20.13;;;;;;;8.01;100.00;101102.00;5073978;28;20032;-67
2023/03/19 07:18:50;;;;;;;33.38;20.85;;;;;;;8.12;100.00;101106.56;5074427;28;20083;-66
2023/03/19 07:21:16;;;;;;;32.53;20.42;;;;;;;8.18;100.00;101107.59;5073898;28;20032;-67
2023/03/19 07:23:41;;;;;;;31.15;19.05;;;;;;;8.26;100.00;101114.75;5075073;28;20030;-67
2023/03/19 07:26:07;;;;;;;32.20;19.38;;;;;;;8.33;100.00;101117.50;5074606;28;20033;-66
2023/03/19 07:28:32;;;;;;;31.60;19.35;;;;;;;8.38;100.00;101118.44;5073407;28;20028;-67
2023/03/19 07:30:57;;;;;;;31.08;18.00;;;;;;;8.45;100.00;101130.03;5074176;28;20460;-67
2023/03/19 07:33:23;;;;;;;30.10;17.92;;;;;;;8.59;100.00;101132.00;5074184;28;20050;-66
2023/03/19 07:35:48;;;;;;;28.65;17.92;;;;;;;8.72;100.00;101126.06;5074273;28;20024;-68
2023/03/19 07:38:14;;;;;;;28.45;17.08;;;;;;;8.82;100.00;101125.38;5074268;28;20401;-67
2023/03/19 07:40:40;;;;;;;27.88;16.40;;;;;;;8.96;100.00;101132.63;5073848;28;20028;-67
2023/03/19 07:43:05;;;;;;;26.77;15.68;;;;;;;9.07;100.00;101126.66;5073220;28;20059;-68
2023/03/19 07:45:31;;;;;;;26.67;14.15;;;;;;;9.21;100.00;101131.25;5074466;28;20032;-68
2023/03/19 07:47:56;;;;;;;26.23;14.05;;;;;;;9.44;100.00;101131.56;5073995;28;20123;-67
2023/03/19 07:50:21;;;;;;;26.25;13.90;;;;;;;9.58;100.00;101134.38;5074000;28;20028;-69
2023/03/19 07:52:50;;;;;;;25.83;13.02;;;;;;;9.77;100.00;101139.03;5073445;28;20062;-67
2023/03/19 07:55:16;;;;;;;23.83;12.30;;;;;;;10.02;100.00;101127.84;5072947;28;20028;-67
2023/03/19 07:57:42;;;;;;;23.50;10.90;;;;;;;10.01;100.00;101129.63;5073631;28;20031;-70
2023/03/19 08:00:09;;;;;;;24.23;11.02;;;;;;;10.07;100.00;101142.00;5073557;28;20020;-66
2023/03/19 08:02:35;;;;;;;24.02;10.48;;;;;;;9.98;100.00;101139.28;5073603;28;20033;-69
2023/03/19 08:05:03;;;;;;;26.48;9.98;;;;;;;9.87;100.00;101131.22;5073692;28;20020;-68
2023/03/19 08:07:29;;;;;;;22.70;8.60;;;;;;;9.71;100.00;101140.69;5074388;28;20094;-66
2023/03/19 08:09:57;;;;;;;23.02;8.13;;;;;;;9.51;100.00;101140.44;5072861;28;20039;-67
2023/03/19 08:12:23;;;;;;;23.95;8.50;;;;;;;9.40;100.00;101140.31;5073411;28;20036;-71
2023/03/19 08:14:49;;;;;;;22.30;8.55;;;;;;;9.32;100.00;101134.94;5073536;28;20119;-67
2023/03/19 08:17:14;;;;;;;24.08;8.95;;;;;;;9.31;100.00;101142.81;5073357;28;20052;-68
2023/03/19 08:19:40;;;;;;;22.90;8.85;;;;;;;9.31;100.00;101148.09;5073505;28;20043;-67
2023/03/19 08:22:05;;;;;;;23.90;9.15;;;;;;;9.22;100.00;101148.84;5073325;28;20493;-67
2023/03/19 08:24:31;;;;;;;25.58;9.80;;;;;;;9.26;100.00;101142.72;5072562;28;20033;-67
2023/03/19 08:26:56;;;;;;;23.67;9.93;;;;;;;9.36;100.00;101142.03;5072934;28;20491;-68
2023/03/19 08:29:21;;;;;;;24.23;10.48;;;;;;;9.33;100.00;101147.22;5073289;28;20056;-67
2023/03/19 08:31:47;;;;;;;24.52;9.52;;;;;;;9.41;100.00;101153.50;5072967;28;20028;-67
2023/03/19 08:34:12;;;;;;;22.65;9.77;;;;;;;9.54;100.00;101158.97;5073452;28;20033;-67
2023/03/19 08:36:37;;;;;;;24.65;9.70;;;;;;;9.72;100.00;101161.84;5072462;28;20035;-68
2023/03/19 08:39:03;;;;;;;23.65;9.30;;;;;;;9.90;100.00;101153.28;5073040;28;20028;-67
2023/03/19 08:41:29;;;;;;;23.25;8.65;;;;;;;10.18;100.00;101157.97;5073159;28;20036;-68
2023/03/19 08:43:55;;;;;;;23.80;8.77;;;;;;;10.38;100.00;101159.13;5073280;28;20074;-68
2023/03/19 08:46:20;;;;;;;23.75;9.15;;;;;;;10.49;100.00;101168.91;5072084;28;20375;-67
2023/03/19 08:48:45;;;;;;;23.45;8.23;;;;;;;10.73;100.00;101173.53;5072984;28;20189;-67
2023/03/19 08:51:11;;;;;;;23.02;8.00;;;;;;;10.89;100.00;101172.81;5072413;28;20078;-68
2023/03/19 08:53:37;;;;;;;22.48;8.02;;;;;;;10.98;100.00;101169.34;5073045;28;20020;-66
2023/03/19 08:56:05;;;;;;;22.20;7.65;;;;;;;10.85;100.00;101178.03;5073051;28;20581;-67
2023/03/19 08:58:30;;;;;;;25.77;8.15;;;;;;;10.74;100.00;101185.88;5072532;28;20490;-67
2023/03/19 09:01:04;;;;;;;22.42;8.13;;;;;;;10.65;100.00;101186.69;5068540;28;20029;-69
2023/03/19 09:03:30;;;;;;;23.55;8.48;;;;;;;10.51;100.00;101194.47;5069141;28;20371;-67
2023/03/19 09:06:04;;;;;;;23.58;8.32;;;;;;;10.51;100.00;101186.53;5068352;28;20471;-67
2023/03/19 09:08:30;;;;;;;23.38;8.38;;;;;;;10.58;100.00;101187.50;5064058;28;20162;-68
2023/03/19 09:10:56;;;;;;;22.33;7.55;;;;;;;10.62;100.00;101194.59;5068235;28;20044;-68
2023/03/19 09:13:22;;;;;;;21.75;7.63;;;;;;;10.68;100.00;101196.41;5072288;28;20058;-67
2023/03/19 09:15:48;;;;;;;22.70;7.18;;;;;;;10.77;100.00;101194.72;5072641;28;20379;-69
2023/03/19 09:18:13;;;;;;;23.58;7.70;;;;;;;10.92;100.00;101201.03;5072460;28;20028;-67
2023/03/19 09:20:38;;;;;;;23.27;7.15;;;;;;;11.27;100.00;101203.97;5072234;28;20082;-70
2023/03/19 09:23:04;;;;;;;24.27;8.15;;;;;;;11.35;100.00;101201.34;5072017;28;20579;-74
2023/03/19 09:25:29;;;;;;;22.98;7.55;;;;;;;11.66;100.00;101191.84;5072609;28;20483;-73
2023/03/19 09:27:55;;;;;;;22.05;6.97;;;;;;;12.13;100.00;101198.28;5071975;28;20047;-71
2023/03/19 09:30:20;;;;;;;22.80;7.32;;;;;;;12.38;100.00;101198.34;5072083;28;20032;-68
2023/03/19 09:32:46;;;;;;;21.58;6.53;;;;;;;12.78;100.00;101203.72;5072129;28;20043;-66
2023/03/19 09:35:11;;;;;;;22.70;7.28;;;;;;;13.07;100.00;101209.03;5072219;28;20379;-69
2023/03/19 09:37:37;;;;;;;22.00;7.50;;;;;;;13.66;100.00;101209.00;5074602;28;20021;-70
2023/03/19 09:40:04;;;;;;;21.67;7.32;;;;;;;13.97;100.00;101210.66;5075946;28;20491;-71
2023/03/19 09:42:48;;;;;;;22.25;8.13;;;;;;;15.10;100.00;101224.19;5075589;28;20035;-66
2023/03/19 09:45:16;;;;;;;20.35;7.90;;;;;;;15.57;100.00;101224.66;5073953;28;20031;-73
2023/03/19 09:47:42;;;;;;;22.75;8.75;;;;;;;15.38;100.00;101226.59;5075524;28;20037;-72
2023/03/19 09:50:17;;;;;;;24.20;9.27;;;;;;;15.47;100.00;101221.19;5075947;28;20028;-70
2023/03/19 09:52:48;;;;;;;23.90;8.65;;;;;;;16.15;100.00;101228.44;5075927;28;20060;-74
2023/03/19 09:55:16;;;;;;;22.10;7.60;;;;;;;16.52;100.00;101222.63;5075603;28;20083;-70
2023/03/19 09:57:41;;;;;;;21.75;7.65;;;;;;;17.07;100.00;101216.47;5075526;28;20032;-70
2023/03/19 10:00:32;;;;;;;23.23;8.75;;;;;;;17.72;100.00;101219.75;5076918;28;20040;-68
2023/03/19 10:03:04;;;;;;;21.92;8.10;;;;;;;17.79;90.06;101229.41;5071821;28;20117;-68
2023/03/19 10:05:35;;;;;;;20.17;5.40;;;;;;;17.48;88.63;101232.69;5071606;28;20036;-70
2023/03/19 10:08:33;;;;;;;21.55;7.35;;;;;;;16.79;94.08;101223.13;5071636;28;20021;-68
2023/03/19 10:11:21;;;;;;;19.75;5.75;;;;;;;15.82;100.00;101225.31;5069903;28;20048;-69
2023/03/19 10:14:01;;;;;;;20.17;5.50;;;;;;;15.33;100.00;101238.19;5074360;28;20108;-67
2023/03/19 10:16:28;;;;;;;20.60;5.22;;;;;;;15.40;100.00;101227.47;5072185;28;20576;-69
2023/03/19 10:19:03;;;;;;;20.73;5.40;;;;;;;15.62;100.00;101233.47;5077148;28;20024;-67
2023/03/19 10:22:04;;;;;;;19.88;5.10;;;;;;;16.21;100.00;101231.06;5074058;28;20033;-68
2023/03/19 10:24:38;;;;;;;21.48;5.60;;;;;;;17.25;89.33;101241.97;5041088;28;20047;-72
2023/03/19 10:27:13;;;;;;;18.00;5.13;;;;;;;17.36;86.36;101240.94;5072534;28;20028;-75
2023/03/19 10:29:40;;;;;;;18.85;4.85;;;;;;;17.34;82.77;101229.38;5074952;28;20043;-72
2023/03/19 10:32:22;;;;;;;19.20;5.03;;;;;;;16.46;87.60;101230.72;5074733;28;20035;-72
2023/03/19 10:34:49;;;;;;;18.55;5.13;;;;;;;15.68;89.38;101234.31;5074639;28;20475;-72
2023/03/19 10:37:18;;;;;;;20.25;5.70;;;;;;;15.24;100.00;101238.25;5074495;28;20055;-72
2023/03/19 10:39:45;;;;;;;21.23;5.63;;;;;;;14.68;100.00;101236.91;5074766;28;20032;-72
2023/03/19 10:42:48;;;;;;;19.55;5.25;;;;;;;14.44;100.00;101233.47;5074490;28;20531;-72
2023/03/19 10:45:25;;;;;;;;;;;;;;;14.33;100.00;101235.31;5073627;28;20371;-72
2023/03/19 10:47:51;;;;;;;21.80;5.40;;;;;;;13.70;100.00;101231.09;5074273;28;19983;-72
2023/03/19 10:50:20;;;;;;;20.90;5.65;;;;;;;13.40;100.00;101243.56;5073810;28;20024;-72
2023/03/19 10:52:51;;;;;;;20.35;5.78;;;;;;;13.35;100.00;101243.56;5074390;28;20077;-72
2023/03/19 10:55:29;;;;;;;19.45;5.20;;;;;;;13.36;100.00;101244.44;5074375;28;20028;-72
2023/03/19 10:58:14;;;;;;;19.38;5.50;;;;;;;13.32;100.00;101248.81;5074070;28;20111;-72
2023/03/19 11:00:40;;;;;;;19.25;4.53;;;;;;;14.26;100.00;101242.44;5067614;28;20107;-72
2023/03/19 11:03:25;;;;;;;19.35;4.10;;;;;;;14.93;100.00;101254.50;5074067;28;20581;-72
2023/03/19 11:06:03;;;;;;;18.55;4.22;;;;;;;14.63;100.00;101250.25;5073872;28;20036;-72
2023/03/19 11:08:33;;;;;;;19.50;4.82;;;;;;;14.11;100.00;101244.28;5070094;28;20024;-72
2023/03/19 11:10:58;;;;;;;17.48;4.70;;;;;;;13.77;100.00;101246.16;5070154;28;20049;-72
2023/03/19 11:13:25;;;;;;;19.98;5.65;;;;;;;14.03;100.00;101256.69;5073845;28;20032;-72